Shiprock, NM

4:42 AM MDT on June 02, 2015 (GMT -0600)
Waste Water Treatment Plant | | Change Station
CLOSE
Current Station
Personal Weather Station
Location: Farmington, NM
Elevation: 5292 ft
Nearby Weather Stations

Elev 5292 ft 36.72 °N, 108.22 °W | Updated 44 seconds ago

Partly Cloudy
Partly Cloudy
52.6 °F
Feels Like 52.6 °F
N
0.0
Wind Variable Wind from South
Gusts 1.0 mph

Today
High -- | Low -- °F
--% Chance of Precip.
Yesterday
High -- | Low -- °F
Precip. -- in
5:57 AM 8:27 PM
Full, 100% visible
Pressure 29.94 in
Visibility 10.0 miles
Clouds Clear
Dew Point 40 °F
Humidity 62%
Rainfall 0.00 in
Snow Depth Not available.
UV 0 out of 12
Pollen 6.30 out of 12
Air Quality Not available.
Flu Activity Sporadic
METAR KFMN 020953Z AUTO 03007KT 10SM CLR 10/02 A3010 RMK AO2 SLP139 T01000022

More Conditions Fewer Conditions

Pressure 29.94 in
Visibility 10.0 miles
Clouds Clear
Dew Point 40 °F
Humidity 62%
Rainfall 0.00 in
Snow Depth Not available.
UV 0 out of 12
Pollen 6.30 out of 12
Air Quality Not available.
Flu Activity Sporadic
METAR KFMN 020953Z AUTO 03007KT 10SM CLR 10/02 A3010 RMK AO2 SLP139 T01000022

More Conditions Fewer Conditions

10-Day Weather Forecast

Almanac

Astronomy

Jun. 02, 2015 Rise Set
Actual Time
Civil Twilight
Nautical Twilight
Astronomical Twilight
Moon
Length of Visible Light
Length of Day
Tomorrow will be .
, % of the Moon is Illuminated

Today's Extremes

State Highs State Lows

Community

WunderPhotos

Upload Photos

1,825,902 photos uploaded!

WunderBlogs® & News

Nearby

Air Quality

  Air Quality AQ Index Pollutant
Not available.

Snow Depth

Station Depth Elevation

Earthquake Activity

City Distance Mag. Time & Date
Minimum magnitude displayed is 2.5.

Coastal Water Temperatures

Place Temperature

Stations

Nearby Weather Stations

Station Location Temp. Windchill Dew Point Humidity Wind Precip. Elev Updated Type